Acmar, AL

5:38 PM CDT on July 03, 2015 (GMT -0500)
APRSWXNET | | Change Station
CLOSE
Current Station
Personal Weather Station
Location: Moody, AL
Elevation: 695 ft
Nearby Weather Stations

Elev 695 ft 33.59 °N, 86.49 °W | Updated 23 minutes ago

Mostly Cloudy
Mostly Cloudy
77 °F
Feels Like 79 °F
N
1
Wind Variable Wind from North
Gusts 5.0 mph

Today
High -- | Low -- °F
--% Chance of Precip.
Yesterday
High -- | Low -- °F
Precip. -- in
5:40 AM 8:00 PM
Waning Gibbous, 96% visible
Pressure 30.01 in
Visibility 10.0 miles
Clouds Few 6000 ft
Mostly Cloudy 15000 ft
Overcast 25000 ft
Heat Index 79 °F
Dew Point 71 °F
Humidity 82%
Rainfall in
Snow Depth Not available.
UV 1 out of 12
Pollen .60 out of 12
Air Quality Not available.
Flu Activity Not available.
METAR KBHM 032153Z 32007KT 10SM FEW060 BKN150 OVC250 26/21 A3003 RMK AO2 LTG DSNT SW SLP162 T02560206

More Conditions Fewer Conditions

Pressure 30.01 in
Visibility 10.0 miles
Clouds Few 6000 ft
Mostly Cloudy 15000 ft
Overcast 25000 ft
Heat Index 79 °F
Dew Point 71 °F
Humidity 82%
Rainfall in
Snow Depth Not available.
UV 1 out of 12
Pollen .60 out of 12
Air Quality Not available.
Flu Activity Not available.
METAR KBHM 032153Z 32007KT 10SM FEW060 BKN150 OVC250 26/21 A3003 RMK AO2 LTG DSNT SW SLP162 T02560206

More Conditions Fewer Conditions

10-Day Weather Forecast

×

Almanac

Astronomy

Jul. 03, 2015 Rise Set
Actual Time
Civil Twilight
Nautical Twilight
Astronomical Twilight
Moon
Length of Visible Light
Length of Day
Tomorrow will be .
, % of the Moon is Illuminated

Today's Extremes

State Highs State Lows

Community

WunderPhotos

Upload Photos

1,834,801 photos uploaded!

WunderBlogs® & News

Nearby

Air Quality

  Air Quality AQ Index Pollutant
Not available.

Snow Depth

Station Depth Elevation

Earthquake Activity

City Distance Mag. Time & Date
Minimum magnitude displayed is 2.5.

Coastal Water Temperatures

Place Temperature

Stations

Nearby Weather Stations

Station Location Temp. Windchill Dew Point Humidity Wind Precip. Elev Updated Type